Time;durP1;ratioP1;P1;durP2;ratioP2;P2;SDS_P1;SDS_P2;PMS_P1;PMS_P2;Temp;Humidity;BMP_temperature;BMP_pressure;BME280_temperature;BME280_humidity;BME280_pressure;Samples;Min_cycle;Max_cycle;Signal;HPM_P1;HPM_P2
2022/06/26 00:01:13;;;;;;;3.67;2.60;;;;;;;18.77;100.00;94453.41;5054601;28;20201;-61
2022/06/26 00:03:38;;;;;;;7.50;2.70;;;;;;;18.85;100.00;94449.88;5054761;28;20650;-60
2022/06/26 00:06:03;;;;;;;3.47;3.00;;;;;;;19.09;100.00;94449.50;5054514;28;20686;-61
2022/06/26 00:08:29;;;;;;;3.95;2.75;;;;;;;19.27;100.00;94447.25;5054891;28;20284;-61
2022/06/26 00:10:54;;;;;;;4.78;3.53;;;;;;;19.22;100.00;94452.19;5054371;28;20194;-61
2022/06/26 00:13:20;;;;;;;4.72;2.40;;;;;;;19.42;100.00;94460.88;5054632;28;20213;-60
2022/06/26 00:15:45;;;;;;;5.57;3.20;;;;;;;19.46;100.00;94456.16;5054517;28;20252;-64
2022/06/26 00:18:11;;;;;;;3.60;2.88;;;;;;;19.71;100.00;94465.03;5054572;28;20189;-60
2022/06/26 00:20:36;;;;;;;3.70;2.90;;;;;;;19.46;100.00;94467.25;5054527;28;20572;-61
2022/06/26 00:23:02;;;;;;;6.70;3.40;;;;;;;19.46;100.00;94462.09;5054351;28;20364;-60
2022/06/26 00:25:28;;;;;;;6.32;4.22;;;;;;;19.30;100.00;94464.94;5053950;28;20224;-62
2022/06/26 00:27:53;;;;;;;8.65;3.97;;;;;;;19.27;100.00;94470.44;5054201;28;20190;-61
2022/06/26 00:30:19;;;;;;;6.68;3.75;;;;;;;19.38;100.00;94467.41;5053937;28;20197;-59
2022/06/26 00:32:44;;;;;;;8.20;4.45;;;;;;;19.32;100.00;94470.72;5054332;28;20197;-61
2022/06/26 00:35:10;;;;;;;11.18;3.63;;;;;;;19.30;100.00;94462.38;5036410;28;20197;-62
2022/06/26 00:37:36;;;;;;;4.45;3.30;;;;;;;19.60;100.00;94461.22;5054030;28;20186;-61
2022/06/26 00:40:01;;;;;;;8.00;4.05;;;;;;;19.62;100.00;94466.97;5054114;28;20291;-63
2022/06/26 00:42:27;;;;;;;12.02;4.10;;;;;;;19.45;100.00;94460.53;5036045;28;20173;-60
2022/06/26 00:44:55;;;;;;;5.68;3.80;;;;;;;19.53;100.00;94462.16;5035986;28;20212;-62
2022/06/26 00:47:25;;;;;;;5.88;4.03;;;;;;;19.60;100.00;94453.47;5054008;28;20177;-63
2022/06/26 00:49:51;;;;;;;6.35;3.40;;;;;;;19.59;100.00;94456.25;5053411;28;20205;-63
2022/06/26 00:52:20;;;;;;;6.03;3.67;;;;;;;19.73;100.00;94458.72;5053309;28;20200;-61
2022/06/26 00:54:46;;;;;;;8.77;3.60;;;;;;;19.64;100.00;94452.09;5053723;28;20218;-62
2022/06/26 00:57:12;;;;;;;6.85;3.45;;;;;;;19.74;100.00;94449.97;5053862;28;20209;-61
2022/06/26 00:59:38;;;;;;;5.45;3.38;;;;;;;19.74;100.00;94462.88;5053570;28;20251;-60
2022/06/26 01:02:04;;;;;;;9.40;3.83;;;;;;;19.62;100.00;94456.66;5053655;28;20651;-60
2022/06/26 01:04:29;;;;;;;6.85;3.75;;;;;;;19.74;100.00;94460.28;5053476;28;20227;-60
2022/06/26 01:06:55;;;;;;;5.15;3.53;;;;;;;19.70;100.00;94458.28;5052915;28;20632;-60
2022/06/26 01:09:21;;;;;;;5.93;4.32;;;;;;;19.74;100.00;94456.91;5053844;28;20639;-62
2022/06/26 01:11:47;;;;;;;7.35;4.03;;;;;;;19.72;100.00;94457.13;5053338;28;20177;-60
2022/06/26 01:14:13;;;;;;;7.90;4.38;;;;;;;19.70;100.00;94453.13;5053420;28;20237;-61
2022/06/26 01:16:42;;;;;;;11.82;4.57;;;;;;;19.68;100.00;94458.47;5053441;28;20177;-61
2022/06/26 01:19:09;;;;;;;7.88;4.45;;;;;;;19.48;100.00;94457.56;5053594;28;20182;-63
2022/06/26 01:21:35;;;;;;;6.60;4.30;;;;;;;19.43;100.00;94461.69;5053468;28;20228;-61
2022/06/26 01:24:01;;;;;;;6.60;4.28;;;;;;;19.43;100.00;94465.06;5053494;28;20189;-61
2022/06/26 01:26:28;;;;;;;5.30;3.85;;;;;;;19.32;100.00;94473.28;5053238;28;20202;-63
2022/06/26 01:28:53;;;;;;;5.70;3.78;;;;;;;19.27;100.00;94452.41;5053440;28;20181;-62
2022/06/26 01:31:19;;;;;;;8.75;4.13;;;;;;;19.37;100.00;94465.03;5052853;28;20228;-61
2022/06/26 01:33:49;;;;;;;6.18;3.72;;;;;;;19.25;100.00;94459.53;5035035;28;20213;-60
2022/06/26 01:36:16;;;;;;;6.32;3.53;;;;;;;19.29;100.00;94463.34;5053054;28;20189;-60
2022/06/26 01:38:42;;;;;;;6.95;3.80;;;;;;;19.18;100.00;94461.28;5053163;28;20177;-62
2022/06/26 01:41:08;;;;;;;7.22;3.50;;;;;;;19.21;100.00;94466.03;5052776;28;20204;-61
2022/06/26 01:43:37;;;;;;;7.10;3.95;;;;;;;19.25;100.00;94465.50;5053196;28;20650;-60
2022/06/26 01:46:03;;;;;;;5.10;4.03;;;;;;;19.24;100.00;94463.91;5052579;28;20204;-63
2022/06/26 01:48:30;;;;;;;10.02;3.58;;;;;;;19.19;100.00;94465.44;5053008;28;20639;-60
2022/06/26 01:50:58;;;;;;;6.05;3.58;;;;;;;19.14;100.00;94467.78;5052609;28;20194;-60
2022/06/26 01:53:24;;;;;;;8.30;3.60;;;;;;;19.15;100.00;94469.38;5052573;28;20221;-61
2022/06/26 01:55:49;;;;;;;7.25;3.92;;;;;;;19.21;100.00;94478.94;5052769;28;20201;-60
2022/06/26 01:58:15;;;;;;;6.82;3.38;;;;;;;19.36;100.00;94476.31;5052682;28;20193;-60
2022/06/26 02:00:43;;;;;;;7.25;3.72;;;;;;;19.43;100.00;94475.38;5052496;28;20280;-60
2022/06/26 02:03:09;;;;;;;5.90;3.90;;;;;;;19.46;100.00;94477.59;5052443;28;20190;-60
2022/06/26 02:05:36;;;;;;;7.07;4.22;;;;;;;19.50;100.00;94489.13;5052287;28;20674;-61
2022/06/26 02:08:02;;;;;;;6.57;3.95;;;;;;;19.55;100.00;94497.09;5052483;28;20173;-61
2022/06/26 02:15:58;;;;;;;7.47;4.00;;;;;;;19.69;100.00;94496.19;5052443;28;20267;-60
2022/06/26 02:18:25;;;;;;;9.30;4.43;;;;;;;19.52;100.00;94504.38;5034457;28;20178;-64
2022/06/26 02:20:51;;;;;;;6.22;4.05;;;;;;;19.58;100.00;94503.63;5052139;28;20205;-64
2022/06/26 02:23:16;;;;;;;5.95;4.05;;;;;;;19.58;100.00;94501.88;5034353;28;20177;-64
2022/06/26 02:25:42;;;;;;;8.20;4.07;;;;;;;19.56;100.00;94495.28;5051872;28;20259;-61
2022/06/26 02:28:08;;;;;;;8.60;4.55;;;;;;;19.73;100.00;94489.69;5052017;28;20185;-62
2022/06/26 02:30:34;;;;;;;5.90;4.20;;;;;;;19.78;100.00;94496.81;5051904;28;20220;-61
2022/06/26 02:33:00;;;;;;;4.70;3.95;;;;;;;19.78;100.00;94489.88;5052102;28;20201;-61
2022/06/26 02:35:27;;;;;;;6.95;4.28;;;;;;;19.77;100.00;94490.88;5051851;28;20767;-63
2022/06/26 02:37:57;;;;;;;4.65;3.42;;;;;;;19.76;100.00;94491.88;5052076;28;20182;-65
2022/06/26 02:40:28;;;;;;;8.75;4.75;;;;;;;19.77;100.00;94488.31;5052085;28;20239;-61
2022/06/26 02:42:54;;;;;;;8.07;4.05;;;;;;;19.87;100.00;94491.34;5052053;28;20181;-61
2022/06/26 02:45:19;;;;;;;7.53;4.15;;;;;;;19.88;100.00;94500.66;5058638;22;20796;-60
2022/06/26 02:47:46;;;;;;;6.45;3.80;;;;;;;19.85;100.00;94503.63;5033929;28;20724;-61
2022/06/26 02:50:12;;;;;;;8.63;4.78;;;;;;;19.84;100.00;94501.22;5051891;28;20229;-60
2022/06/26 02:52:38;;;;;;;5.37;4.13;;;;;;;19.89;100.00;94498.88;5051800;28;20248;-60
2022/06/26 02:55:04;;;;;;;6.32;3.47;;;;;;;19.88;100.00;94503.25;5051870;28;20255;-61
2022/06/26 02:57:30;;;;;;;7.35;4.25;;;;;;;19.87;100.00;94506.03;5051571;28;20213;-63
2022/06/26 02:59:55;;;;;;;5.88;4.07;;;;;;;19.87;100.00;94509.41;5051997;28;20228;-61
2022/06/26 03:02:23;;;;;;;8.10;3.88;;;;;;;20.06;100.00;94521.59;5051658;28;20177;-62
2022/06/26 03:04:48;;;;;;;6.00;4.03;;;;;;;20.04;100.00;94527.94;5051556;28;20194;-61
2022/06/26 03:07:14;;;;;;;8.43;4.53;;;;;;;20.01;100.00;94518.81;5051536;28;20174;-61
2022/06/26 03:09:39;;;;;;;5.93;4.30;;;;;;;20.03;100.00;94522.00;5051605;28;20212;-63
2022/06/26 03:12:05;;;;;;;8.23;4.50;;;;;;;19.98;100.00;94520.97;5051570;28;20177;-61
2022/06/26 03:14:31;;;;;;;12.40;5.25;;;;;;;19.82;100.00;94514.31;5035826;28;20232;-64
2022/06/26 03:16:57;;;;;;;18.38;5.38;;;;;;;19.72;100.00;94506.13;5055557;28;20179;-60
2022/06/26 03:19:23;;;;;;;7.05;5.10;;;;;;;19.56;100.00;94510.75;5055913;28;20182;-63
2022/06/26 03:21:49;;;;;;;9.05;5.47;;;;;;;19.31;100.00;94518.06;5037516;28;20220;-63
2022/06/26 03:24:14;;;;;;;12.65;5.43;;;;;;;19.17;100.00;94524.09;5055916;28;20635;-60
2022/06/26 03:26:40;;;;;;;9.75;6.07;;;;;;;19.45;100.00;94522.41;5055486;28;20205;-63
2022/06/26 03:29:08;;;;;;;7.05;5.35;;;;;;;19.54;100.00;94525.63;5020922;28;20193;-64
2022/06/26 03:31:34;;;;;;;8.57;5.25;;;;;;;19.42;100.00;94527.13;5055277;28;20173;-63
2022/06/26 03:33:59;;;;;;;8.13;4.95;;;;;;;19.28;100.00;94532.16;5055042;28;20213;-63
2022/06/26 03:36:27;;;;;;;11.65;5.32;;;;;;;19.37;100.00;94530.28;5055158;28;20201;-60
2022/06/26 03:38:53;;;;;;;9.35;4.35;;;;;;;19.45;100.00;94540.47;5055431;28;20189;-64
2022/06/26 03:41:19;;;;;;;10.43;4.97;;;;;;;19.44;100.00;94548.38;5054965;28;20201;-61
2022/06/26 03:43:44;;;;;;;8.90;4.07;;;;;;;19.24;100.00;94543.81;5036992;28;20223;-64
2022/06/26 03:46:10;;;;;;;7.15;4.78;;;;;;;19.09;100.00;94537.91;5053599;28;20197;-64
2022/06/26 03:48:36;;;;;;;14.32;5.63;;;;;;;19.03;100.00;94527.53;5035586;28;20209;-61
2022/06/26 03:51:03;;;;;;;7.95;4.90;;;;;;;18.86;100.00;94533.94;5053837;28;20202;-60
2022/06/26 03:53:28;;;;;;;7.80;5.63;;;;;;;18.83;100.00;94524.78;5053827;28;20213;-61
2022/06/26 03:56:02;;;;;;;13.48;5.38;;;;;;;18.89;100.00;94526.63;5053519;28;20559;-60
2022/06/26 03:58:31;;;;;;;10.73;5.47;;;;;;;18.97;100.00;94538.59;5053813;28;20212;-62
2022/06/26 04:00:57;;;;;;;8.13;6.05;;;;;;;18.94;100.00;94541.53;5053447;28;20204;-62
2022/06/26 04:03:22;;;;;;;7.97;4.72;;;;;;;18.87;100.00;94546.63;5053730;28;20186;-63
2022/06/26 04:05:48;;;;;;;11.38;5.78;;;;;;;18.83;100.00;94552.31;5053319;28;20240;-63
2022/06/26 04:08:14;;;;;;;12.35;5.97;;;;;;;18.89;100.00;94546.44;5053590;28;20560;-62
2022/06/26 04:10:40;;;;;;;7.82;4.43;;;;;;;19.16;100.00;94550.88;5053439;28;20197;-62
2022/06/26 04:13:08;;;;;;;6.63;4.95;;;;;;;19.24;100.00;94551.56;5053732;28;20233;-61
2022/06/26 04:15:36;;;;;;;8.27;4.57;;;;;;;19.20;100.00;94552.09;5053144;28;20679;-63
2022/06/26 04:18:03;;;;;;;6.30;4.47;;;;;;;19.09;100.00;94545.66;5053076;28;20178;-60
2022/06/26 04:20:28;;;;;;;8.48;4.22;;;;;;;19.24;100.00;94537.88;5052957;28;20217;-60
2022/06/26 04:23:03;;;;;;;5.50;4.30;;;;;;;19.35;100.00;94555.47;5035107;28;20184;-60
2022/06/26 04:25:30;;;;;;;5.78;5.10;;;;;;;19.50;100.00;94545.03;5051851;28;20228;-60
2022/06/26 04:27:57;;;;;;;11.40;5.20;;;;;;;19.64;100.00;94539.00;5053320;28;20181;-60
2022/06/26 04:30:22;;;;;;;9.20;5.35;;;;;;;19.69;100.00;94540.06;5053056;28;20209;-60
2022/06/26 04:32:48;;;;;;;7.10;5.25;;;;;;;19.60;100.00;94554.06;5052872;28;20232;-61
2022/06/26 04:35:14;;;;;;;8.35;5.25;;;;;;;19.75;100.00;94546.25;5052830;28;20194;-60
2022/06/26 04:37:43;;;;;;;32.10;11.88;;;;;;;20.00;100.00;94540.44;5052903;28;20185;-59
2022/06/26 04:40:11;;;;;;;11.85;5.25;;;;;;;20.13;100.00;94552.63;5053023;28;20204;-59
2022/06/26 04:42:38;;;;;;;13.57;7.93;;;;;;;20.03;100.00;94550.41;5052783;28;20546;-60
2022/06/26 04:45:05;;;;;;;5.07;4.63;;;;;;;20.04;100.00;94548.59;4749608;28;8266605;-62
2022/06/26 04:47:30;;;;;;;28.90;15.27;;;;;;;20.16;100.00;94535.97;5052591;28;20243;-60
2022/06/26 04:49:56;;;;;;;12.02;6.97;;;;;;;20.14;100.00;94537.94;5053628;28;20635;-60
2022/06/26 04:52:22;;;;;;;24.90;11.55;;;;;;;20.28;100.00;94542.22;5053766;28;20170;-59
2022/06/26 04:54:47;;;;;;;16.25;9.23;;;;;;;20.54;100.00;94550.06;5064804;22;20233;-63
2022/06/26 04:57:13;;;;;;;6.95;5.00;;;;;;;20.67;100.00;94571.59;5052310;28;20185;-62
2022/06/26 04:59:38;;;;;;;8.18;5.85;;;;;;;20.63;100.00;94569.56;5053943;28;20224;-62
2022/06/26 05:02:06;;;;;;;43.67;18.55;;;;;;;20.68;100.00;94552.53;5053861;28;20261;-61
2022/06/26 05:04:32;;;;;;;9.82;6.20;;;;;;;20.76;100.00;94577.38;5053727;28;20205;-60
2022/06/26 05:06:58;;;;;;;34.83;19.27;;;;;;;20.76;100.00;94559.31;5053417;28;20569;-62
2022/06/26 05:09:24;;;;;;;19.52;9.77;;;;;;;20.98;100.00;94565.13;5053815;28;20234;-62
2022/06/26 05:11:50;;;;;;;9.40;5.93;;;;;;;21.09;100.00;94590.44;5053291;28;20177;-61
2022/06/26 05:14:16;;;;;;;8.98;5.28;;;;;;;21.13;100.00;94592.41;5053362;28;20423;-62
2022/06/26 05:16:41;;;;;;;9.30;5.90;;;;;;;21.17;100.00;94578.09;5053211;28;20189;-63
2022/06/26 05:19:07;;;;;;;8.40;6.22;;;;;;;21.18;100.00;94609.94;5053377;28;20639;-63
2022/06/26 05:21:33;;;;;;;13.55;6.82;;;;;;;20.93;100.00;94599.28;5053236;28;20572;-64
2022/06/26 05:23:59;;;;;;;10.77;6.03;;;;;;;21.10;100.00;94582.47;5053550;28;20265;-63
2022/06/26 05:26:24;;;;;;;11.50;6.43;;;;;;;21.32;100.00;94599.44;5053014;28;20201;-60
2022/06/26 05:28:50;;;;;;;10.43;7.18;;;;;;;21.38;100.00;94616.75;5053228;28;20186;-63
2022/06/26 05:31:15;;;;;;;14.82;7.65;;;;;;;21.67;100.00;94615.59;5053080;28;20205;-60
2022/06/26 05:33:41;;;;;;;10.65;5.72;;;;;;;21.58;100.00;94625.34;5052887;28;20748;-60
2022/06/26 05:36:07;;;;;;;8.52;5.45;;;;;;;21.70;100.00;94616.00;5051184;28;20571;-64
2022/06/26 05:38:40;;;;;;;9.77;6.20;;;;;;;21.51;100.00;94627.13;5052716;28;20190;-64
2022/06/26 05:41:07;;;;;;;6.75;5.30;;;;;;;21.51;100.00;94609.00;5052856;28;20296;-60
2022/06/26 05:43:32;;;;;;;9.35;6.13;;;;;;;21.65;100.00;94617.59;5052838;28;20240;-64
2022/06/26 05:45:58;;;;;;;8.15;5.80;;;;;;;21.77;100.00;94632.31;5052680;28;20205;-62
2022/06/26 05:48:24;;;;;;;6.90;6.13;;;;;;;21.60;100.00;94653.59;5052582;28;20178;-63
2022/06/26 05:50:50;;;;;;;9.95;5.85;;;;;;;21.51;100.00;94629.69;5052475;28;20604;-60
2022/06/26 05:53:17;;;;;;;9.60;4.80;;;;;;;21.59;100.00;94639.84;5052380;28;20200;-61
2022/06/26 05:55:43;;;;;;;9.07;5.05;;;;;;;21.45;100.00;94646.00;5052312;28;20206;-64
2022/06/26 05:58:09;;;;;;;12.77;7.18;;;;;;;21.43;100.00;94632.47;5051098;28;20185;-61
2022/06/26 06:00:34;;;;;;;8.60;6.32;;;;;;;21.48;100.00;94621.53;5052630;28;20201;-61
2022/06/26 06:03:00;;;;;;;5.43;4.50;;;;;;;21.40;100.00;94632.88;5052323;28;20307;-61
2022/06/26 06:05:27;;;;;;;13.93;7.18;;;;;;;21.64;100.00;94641.88;5051321;28;20201;-64
2022/06/26 06:07:53;;;;;;;5.72;4.78;;;;;;;21.63;100.00;94640.28;5052562;28;20166;-61
2022/06/26 06:10:19;;;;;;;10.80;5.57;;;;;;;21.83;100.00;94648.09;5051159;28;20224;-65
2022/06/26 06:12:46;;;;;;;9.32;4.45;;;;;;;22.06;100.00;94656.28;5050877;28;20655;-61
2022/06/26 06:15:12;;;;;;;6.60;3.88;;;;;;;22.32;100.00;94640.72;5052486;28;20205;-62
2022/06/26 06:17:40;;;;;;;6.40;5.25;;;;;;;22.24;100.00;94684.94;5052117;28;20174;-63
2022/06/26 06:20:11;;;;;;;9.82;4.65;;;;;;;21.53;100.00;94637.28;5052413;28;20205;-63
2022/06/26 06:22:39;;;;;;;12.95;8.98;;;;;;;20.99;100.00;94632.13;5052199;28;20676;-63
2022/06/26 06:25:06;;;;;;;14.52;9.45;;;;;;;20.56;100.00;94607.50;5050887;28;20208;-60
2022/06/26 06:27:31;;;;;;;7.82;5.10;;;;;;;20.74;100.00;94610.38;5051869;28;20182;-61
2022/06/26 06:29:56;;;;;;;6.65;4.60;;;;;;;20.79;100.00;94610.56;5052242;28;20201;-61
2022/06/26 06:32:22;;;;;;;8.40;5.60;;;;;;;20.82;100.00;94618.75;5051896;28;20257;-61
2022/06/26 06:34:48;;;;;;;11.30;6.07;;;;;;;20.70;100.00;94609.97;5051909;28;20221;-62
2022/06/26 06:37:13;;;;;;;11.68;5.88;;;;;;;20.46;100.00;94612.22;5051709;28;20166;-61
2022/06/26 06:39:38;;;;;;;9.13;6.82;;;;;;;20.34;100.00;94611.94;5051583;28;20205;-62
2022/06/26 06:42:04;;;;;;;11.55;5.70;;;;;;;20.80;100.00;94627.69;5051257;28;20223;-62
2022/06/26 06:44:29;;;;;;;9.60;5.45;;;;;;;20.82;100.00;94636.06;5048847;28;20223;-61
2022/06/26 06:46:55;;;;;;;10.35;5.18;;;;;;;20.68;100.00;94640.38;5050101;28;20677;-61
2022/06/26 06:49:20;;;;;;;6.75;5.68;;;;;;;20.68;100.00;94639.56;5050130;28;20623;-61
2022/06/26 06:51:46;;;;;;;12.20;6.20;;;;;;;20.54;100.00;94619.81;5050621;28;20183;-61
2022/06/26 06:54:12;;;;;;;11.15;5.72;;;;;;;20.58;100.00;94614.06;5051390;28;20213;-64
2022/06/26 06:56:37;;;;;;;10.93;6.28;;;;;;;20.38;100.00;94608.00;5051676;28;20177;-64
2022/06/26 06:59:03;;;;;;;6.65;4.95;;;;;;;20.76;100.00;94626.47;5052015;28;20705;-63
2022/06/26 07:01:29;;;;;;;11.38;5.65;;;;;;;20.82;100.00;94625.72;5052014;28;20197;-65
2022/06/26 07:03:54;;;;;;;8.23;5.88;;;;;;;20.58;100.00;94602.94;5051880;28;20181;-61
2022/06/26 07:06:20;;;;;;;8.00;5.38;;;;;;;20.52;100.00;94611.47;5051772;28;20676;-64
2022/06/26 07:08:45;;;;;;;6.55;5.03;;;;;;;20.56;100.00;94612.69;5051679;28;20186;-62
2022/06/26 07:11:11;;;;;;;7.20;5.68;;;;;;;20.69;100.00;94610.13;5051567;28;20206;-60
2022/06/26 07:13:36;;;;;;;6.68;5.15;;;;;;;20.80;100.00;94614.78;5051557;28;20221;-62
2022/06/26 07:16:03;;;;;;;4.97;4.53;;;;;;;20.97;100.00;94626.34;5051377;28;20202;-64
2022/06/26 07:18:28;;;;;;;6.40;4.78;;;;;;;21.21;100.00;94635.44;5051604;28;20177;-62
2022/06/26 07:20:54;;;;;;;6.53;4.97;;;;;;;21.05;100.00;94615.88;5051295;28;20202;-61
2022/06/26 07:23:20;;;;;;;6.97;4.60;;;;;;;21.12;100.00;94645.13;5051573;28;20162;-62
2022/06/26 07:25:45;;;;;;;7.53;5.10;;;;;;;21.45;100.00;94661.53;5051550;28;20201;-62
2022/06/26 07:28:11;;;;;;;11.18;5.38;;;;;;;21.31;100.00;94651.38;5051591;28;20648;-61
2022/06/26 07:30:36;;;;;;;10.40;6.63;;;;;;;21.17;100.00;94647.94;5050139;28;20683;-61
2022/06/26 07:34:12;;;;;;;8.57;5.78;;;;;;;21.17;100.00;94650.50;5051355;28;20260;-61
2022/06/26 07:35:51;;;;;;;8.52;5.03;;;;;;;21.41;100.00;94657.75;5051136;28;20694;-62
2022/06/26 07:38:16;;;;;;;9.45;5.15;;;;;;;21.51;100.00;94642.63;5051271;28;20631;-64
2022/06/26 07:40:41;;;;;;;9.30;4.85;;;;;;;21.45;100.00;94632.31;5058552;22;20586;-60
2022/06/26 07:43:07;;;;;;;7.32;4.80;;;;;;;21.47;100.00;94656.97;5051252;28;20178;-61
2022/06/26 07:45:32;;;;;;;8.05;4.97;;;;;;;21.49;100.00;94636.84;5051446;28;20297;-62
2022/06/26 07:47:58;;;;;;;7.00;5.25;;;;;;;21.54;100.00;94636.28;5051272;28;20185;-62
2022/06/26 07:50:23;;;;;;;8.73;5.68;;;;;;;21.58;100.00;94648.63;5051084;28;20197;-61
2022/06/26 07:52:49;;;;;;;5.82;4.80;;;;;;;21.68;100.00;94659.41;5051033;28;20178;-64
2022/06/26 07:55:16;;;;;;;12.35;5.38;;;;;;;21.79;100.00;94686.50;5051246;28;20279;-64
2022/06/26 07:57:42;;;;;;;10.88;5.15;;;;;;;21.94;100.00;94626.78;5033270;28;20178;-62
2022/06/26 08:00:08;;;;;;;5.07;4.35;;;;;;;22.12;100.00;94658.06;5052652;28;20205;-60
2022/06/26 08:02:34;;;;;;;8.05;4.63;;;;;;;22.19;100.00;94635.53;5054663;28;20170;-60
2022/06/26 08:04:59;;;;;;;4.80;3.80;;;;;;;22.37;100.00;94666.78;5054883;28;20197;-63
2022/06/26 08:07:25;;;;;;;5.40;3.88;;;;;;;22.49;100.00;94714.41;5054704;28;20193;-62
2022/06/26 08:09:50;;;;;;;6.35;4.50;;;;;;;22.45;100.00;94651.03;5036645;28;20206;-61
2022/06/26 08:12:15;;;;;;;8.52;4.65;;;;;;;22.41;100.00;94640.28;5036779;28;20174;-61
2022/06/26 08:14:41;;;;;;;8.00;5.43;;;;;;;22.45;100.00;94632.91;5054513;28;20209;-63
2022/06/26 08:17:07;;;;;;;8.60;5.88;;;;;;;22.43;100.00;94669.38;5036667;28;20198;-63
2022/06/26 08:19:32;;;;;;;9.90;4.80;;;;;;;22.37;100.00;94688.31;5054508;28;20679;-63
2022/06/26 08:22:01;;;;;;;10.93;5.28;;;;;;;22.67;100.00;94629.09;5054485;28;20192;-61
2022/06/26 08:24:27;;;;;;;19.90;17.45;;;;;;;22.71;100.00;94640.63;5054233;28;20197;-64
2022/06/26 08:26:53;;;;;;;5.88;5.15;;;;;;;22.58;100.00;94708.06;5036175;28;20256;-64
2022/06/26 08:29:19;;;;;;;6.97;4.15;;;;;;;22.55;100.00;94722.19;5061954;22;20225;-61
2022/06/26 08:31:45;;;;;;;5.88;4.15;;;;;;;22.53;100.00;94700.06;5054111;28;20205;-64
2022/06/26 08:34:10;;;;;;;8.43;5.30;;;;;;;22.60;100.00;94684.53;5054007;28;20208;-61
2022/06/26 08:36:38;;;;;;;7.05;4.25;;;;;;;22.78;100.00;94682.09;5054379;28;20186;-61
2022/06/26 08:39:04;;;;;;;7.45;3.97;;;;;;;22.99;100.00;94674.03;5053994;28;20177;-64
2022/06/26 08:41:34;;;;;;;8.10;4.20;;;;;;;22.86;100.00;94695.66;5053848;28;20283;-64
2022/06/26 08:43:59;;;;;;;7.65;4.00;;;;;;;22.89;100.00;94734.13;5053954;28;20182;-67
2022/06/26 08:46:27;;;;;;;8.75;4.53;;;;;;;22.98;100.00;94706.19;5054038;28;20200;-63
2022/06/26 08:48:56;;;;;;;8.43;3.83;;;;;;;23.24;100.00;94706.88;5036090;28;20180;-63
2022/06/26 08:51:22;;;;;;;4.90;3.63;;;;;;;23.13;100.00;94697.13;5053890;28;20260;-61
2022/06/26 08:53:48;;;;;;;6.80;3.60;;;;;;;23.23;100.00;94715.66;5036103;28;20205;-61
2022/06/26 08:56:14;;;;;;;4.70;2.65;;;;;;;23.24;99.94;94792.50;5053485;28;20199;-60
2022/06/26 08:58:39;;;;;;;4.93;2.72;;;;;;;23.47;93.85;94838.00;5053571;28;20178;-61
2022/06/26 09:01:07;;;;;;;5.78;3.63;;;;;;;23.54;100.00;94717.56;5035598;28;20694;-63
2022/06/26 09:03:34;;;;;;;8.77;3.67;;;;;;;23.38;100.00;94673.91;5054150;28;20193;-60
2022/06/26 09:06:03;;;;;;;12.52;8.73;;;;;;;23.51;100.00;94699.81;5053365;28;20268;-63
2022/06/26 09:08:30;;;;;;;5.93;5.32;;;;;;;23.99;100.00;94625.59;5054093;28;20200;-61
2022/06/26 09:10:57;;;;;;;7.07;3.92;;;;;;;24.40;100.00;94718.59;5053083;28;20189;-60
2022/06/26 09:13:22;;;;;;;8.68;4.32;;;;;;;24.52;100.00;94709.13;5053397;28;20672;-62
2022/06/26 09:15:50;;;;;;;6.03;3.33;;;;;;;24.55;98.68;94760.69;5053336;28;20197;-61
2022/06/26 09:18:16;;;;;;;5.43;2.83;;;;;;;24.35;95.76;94791.22;5053620;28;20269;-63
2022/06/26 09:20:53;;;;;;;6.55;3.33;;;;;;;24.22;94.10;94812.09;5060100;22;20312;-63
2022/06/26 09:23:19;;;;;;;6.10;3.50;;;;;;;24.35;97.21;94743.63;5053236;28;20659;-63
2022/06/26 09:25:45;;;;;;;5.28;3.42;;;;;;;24.18;98.22;94725.16;5052967;28;20205;-64
2022/06/26 09:28:17;;;;;;;6.45;3.65;;;;;;;24.43;96.88;94749.38;5053182;28;20186;-62
2022/06/26 09:30:51;;;;;;;11.18;8.77;;;;;;;24.42;97.92;94728.81;5052732;28;20604;-62
2022/06/26 09:33:24;;;;;;;6.50;3.60;;;;;;;24.52;95.09;94771.53;5052773;28;20201;-63
2022/06/26 09:35:51;;;;;;;5.13;3.25;;;;;;;24.24;88.55;94856.88;5052589;28;20626;-63
2022/06/26 09:38:18;;;;;;;5.95;2.90;;;;;;;24.53;90.51;94817.28;5053338;28;20542;-63
2022/06/26 09:40:53;;;;;;;4.65;2.42;;;;;;;24.50;92.99;94765.75;5052992;28;20236;-63
2022/06/26 09:43:33;;;;;;;10.93;5.35;;;;;;;24.72;93.34;94747.94;5052748;28;20180;-63
2022/06/26 09:46:02;;;;;;;4.03;2.75;;;;;;;24.90;94.71;94737.59;5052847;28;20554;-64
2022/06/26 09:48:28;;;;;;;3.65;2.78;;;;;;;25.02;93.72;94755.88;5052678;28;20178;-63
2022/06/26 09:50:55;;;;;;;4.80;4.40;;;;;;;24.89;89.98;94814.03;5052547;28;20713;-64
2022/06/26 09:53:22;;;;;;;5.28;3.97;;;;;;;24.88;90.23;94802.06;5052402;28;20205;-63
2022/06/26 09:55:50;;;;;;;7.60;5.47;;;;;;;24.83;91.30;94770.66;5052326;28;20202;-64
2022/06/26 09:58:16;;;;;;;6.88;3.00;;;;;;;24.97;88.39;94824.97;5052294;28;20177;-64
2022/06/26 10:00:42;;;;;;;6.18;2.97;;;;;;;24.98;88.65;94776.34;5052294;28;20189;-64
2022/06/26 10:08:42;;;;;;;3.70;2.53;;;;;;;25.32;74.16;94912.94;5052778;28;20339;-64
2022/06/26 10:11:09;;;;;;;4.28;2.55;;;;;;;25.16;74.07;94861.44;5052692;28;20204;-65
2022/06/26 10:13:39;;;;;;;8.52;4.05;;;;;;;25.32;75.53;94822.63;5034270;28;20229;-64
2022/06/26 10:16:26;;;;;;;4.38;2.70;;;;;;;25.51;74.20;94834.66;5052037;28;20201;-64
2022/06/26 10:19:16;;;;;;;3.33;2.10;;;;;;;25.59;66.71;94909.13;5034073;28;20185;-65
2022/06/26 10:21:42;;;;;;;3.83;2.55;;;;;;;25.30;64.99;94889.75;5052328;28;20182;-64
2022/06/26 10:24:07;;;;;;;4.65;3.05;;;;;;;25.36;65.61;94862.03;5033332;28;20182;-63
2022/06/26 10:26:33;;;;;;;10.25;2.65;;;;;;;25.37;67.18;94809.75;5034031;28;20201;-63
2022/06/26 10:29:06;;;;;;;3.08;2.58;;;;;;;25.43;64.51;94863.59;5052559;28;20193;-64
2022/06/26 10:31:49;;;;;;;5.55;2.50;;;;;;;25.35;67.45;94783.13;5051873;28;20178;-64
2022/06/26 10:34:22;;;;;;;5.45;2.75;;;;;;;25.53;70.33;94712.09;5051927;28;20301;-64
2022/06/26 10:37:10;;;;;;;2.95;2.45;;;;;;;25.65;70.26;94733.75;5051738;28;20659;-64
2022/06/26 10:39:56;;;;;;;3.70;2.72;;;;;;;25.58;63.93;94858.84;5051630;28;20189;-64
2022/06/26 10:45:41;;;;;;;2.85;2.53;;;;;;;26.24;63.90;94835.41;5052508;28;20572;-64
2022/06/26 10:48:18;;;;;;;4.03;2.33;;;;;;;25.90;60.90;94895.97;5035132;28;20193;-63
2022/06/26 10:50:45;;;;;;;4.53;2.40;;;;;;;25.82;61.17;94883.22;5033568;28;20216;-62
2022/06/26 10:53:23;;;;;;;5.25;2.53;;;;;;;26.07;63.12;94831.84;5039003;23;20248;-66
2022/06/26 10:55:57;;;;;;;5.32;2.67;;;;;;;26.17;62.09;94852.97;5059471;22;20241;-65
2022/06/26 10:58:35;;;;;;;5.18;2.30;;;;;;;26.55;61.33;94870.88;5051746;28;20169;-63
2022/06/26 11:01:04;;;;;;;2.72;2.10;;;;;;;26.98;62.29;94826.31;5051721;28;20205;-63
2022/06/26 11:03:30;;;;;;;3.05;2.47;;;;;;;27.31;63.74;94785.53;5051638;28;20166;-63
2022/06/26 11:05:57;;;;;;;5.18;2.90;;;;;;;27.75;63.09;94822.50;5051425;28;20201;-62
2022/06/26 11:08:31;;;;;;;2.70;2.30;;;;;;;27.30;59.96;94892.84;5051429;28;20594;-63
2022/06/26 11:11:31;;;;;;;2.80;2.50;;;;;;;27.70;58.69;94901.59;5051869;28;20209;-63
2022/06/26 11:14:06;;;;;;;5.18;3.03;;;;;;;28.14;61.10;94829.56;5033240;28;20278;-63
2022/06/26 11:16:33;;;;;;;3.55;3.25;;;;;;;27.93;64.12;94765.63;5051798;28;20189;-64
2022/06/26 11:19:01;;;;;;;4.53;3.03;;;;;;;28.39;65.05;94740.28;5051222;28;20573;-62
2022/06/26 11:21:27;;;;;;;3.80;3.10;;;;;;;27.95;65.32;94734.84;5050985;28;20197;-62
2022/06/26 11:23:53;;;;;;;6.90;3.45;;;;;;;27.76;65.98;94728.19;5051133;28;20264;-62
2022/06/26 11:26:20;;;;;;;5.55;2.78;;;;;;;27.19;69.90;94641.13;5051661;28;20201;-62
2022/06/26 11:28:52;;;;;;;3.90;3.10;;;;;;;27.13;70.06;94646.53;5033407;28;20178;-61
2022/06/26 11:31:24;;;;;;;5.10;2.80;;;;;;;26.85;74.48;94576.78;5058078;22;20240;-64
2022/06/26 11:33:50;;;;;;;4.13;3.20;;;;;;;26.56;71.86;94620.25;5051252;28;20300;-65
2022/06/26 11:36:17;;;;;;;5.28;3.30;;;;;;;26.33;72.59;94620.28;5054428;28;20268;-66
2022/06/26 11:38:53;;;;;;;3.85;3.13;;;;;;;26.46;70.91;94653.94;5054974;28;20181;-64